sensor_id;sensor_type;location;lat;lon;timestamp;temperature;humidity
13817;DHT22;6979;52.116;5.286;2023-02-28T00:00:08;6.90;99.90
13817;DHT22;6979;52.116;5.286;2023-02-28T00:02:37;6.90;99.90
13817;DHT22;6979;52.116;5.286;2023-02-28T00:05:05;6.90;99.90
13817;DHT22;6979;52.116;5.286;2023-02-28T00:07:32;6.90;99.90
13817;DHT22;6979;52.116;5.286;2023-02-28T00:10:02;6.90;99.90
13817;DHT22;6979;52.116;5.286;2023-02-28T00:12:30;6.90;99.90
13817;DHT22;6979;52.116;5.286;2023-02-28T00:14:57;6.90;99.90
13817;DHT22;6979;52.116;5.286;2023-02-28T00:17:24;6.90;99.90
13817;DHT22;6979;52.116;5.286;2023-02-28T00:19:53;7.00;99.90
13817;DHT22;6979;52.116;5.286;2023-02-28T00:22:22;7.00;99.90
13817;DHT22;6979;52.116;5.286;2023-02-28T00:24:49;7.00;99.90
13817;DHT22;6979;52.116;5.286;2023-02-28T00:27:16;7.10;99.90
13817;DHT22;6979;52.116;5.286;2023-02-28T00:29:43;7.10;99.90
13817;DHT22;6979;52.116;5.286;2023-02-28T00:32:10;7.20;99.90
13817;DHT22;6979;52.116;5.286;2023-02-28T00:34:37;7.20;99.90
13817;DHT22;6979;52.116;5.286;2023-02-28T00:37:10;7.30;99.90
13817;DHT22;6979;52.116;5.286;2023-02-28T00:39:38;7.30;99.90
13817;DHT22;6979;52.116;5.286;2023-02-28T00:42:07;7.30;99.90
13817;DHT22;6979;52.116;5.286;2023-02-28T00:44:34;7.40;99.90
13817;DHT22;6979;52.116;5.286;2023-02-28T00:47:01;7.40;99.90
13817;DHT22;6979;52.116;5.286;2023-02-28T00:49:28;7.40;99.90
13817;DHT22;6979;52.116;5.286;2023-02-28T00:51:55;7.50;99.90
13817;DHT22;6979;52.116;5.286;2023-02-28T00:54:24;7.50;99.90
13817;DHT22;6979;52.116;5.286;2023-02-28T00:56:51;7.50;99.90
13817;DHT22;6979;52.116;5.286;2023-02-28T00:59:18;7.60;99.90
13817;DHT22;6979;52.116;5.286;2023-02-28T01:01:45;7.60;99.90
13817;DHT22;6979;52.116;5.286;2023-02-28T01:04:13;7.60;99.90
13817;DHT22;6979;52.116;5.286;2023-02-28T01:06:40;7.70;99.90
13817;DHT22;6979;52.116;5.286;2023-02-28T01:09:10;7.70;99.90
13817;DHT22;6979;52.116;5.286;2023-02-28T01:11:38;7.80;99.90
13817;DHT22;6979;52.116;5.286;2023-02-28T01:14:08;7.80;99.90
13817;DHT22;6979;52.116;5.286;2023-02-28T01:16:36;7.80;99.90
13817;DHT22;6979;52.116;5.286;2023-02-28T01:19:03;7.80;99.90
13817;DHT22;6979;52.116;5.286;2023-02-28T01:21:30;7.90;99.90
13817;DHT22;6979;52.116;5.286;2023-02-28T01:23:58;7.90;99.90
13817;DHT22;6979;52.116;5.286;2023-02-28T01:26:25;7.90;99.90
13817;DHT22;6979;52.116;5.286;2023-02-28T01:28:53;8.00;99.90
13817;DHT22;6979;52.116;5.286;2023-02-28T01:31:21;8.00;99.90
13817;DHT22;6979;52.116;5.286;2023-02-28T01:33:48;8.00;99.90
13817;DHT22;6979;52.116;5.286;2023-02-28T01:36:17;8.00;99.90
13817;DHT22;6979;52.116;5.286;2023-02-28T01:38:44;8.00;99.90
13817;DHT22;6979;52.116;5.286;2023-02-28T01:41:16;8.10;99.90
13817;DHT22;6979;52.116;5.286;2023-02-28T01:44:04;8.10;99.90
13817;DHT22;6979;52.116;5.286;2023-02-28T01:46:32;8.10;99.90
13817;DHT22;6979;52.116;5.286;2023-02-28T01:49:04;8.20;99.90
13817;DHT22;6979;52.116;5.286;2023-02-28T01:51:37;8.20;99.90
13817;DHT22;6979;52.116;5.286;2023-02-28T01:54:08;8.20;99.90
13817;DHT22;6979;52.116;5.286;2023-02-28T01:56:44;8.20;99.90
13817;DHT22;6979;52.116;5.286;2023-02-28T01:59:19;8.20;99.90
13817;DHT22;6979;52.116;5.286;2023-02-28T02:01:47;8.30;99.90
13817;DHT22;6979;52.116;5.286;2023-02-28T02:04:15;8.30;99.90
13817;DHT22;6979;52.116;5.286;2023-02-28T02:06:44;8.30;99.90
13817;DHT22;6979;52.116;5.286;2023-02-28T02:09:15;8.30;99.90
13817;DHT22;6979;52.116;5.286;2023-02-28T02:11:43;8.30;99.90
13817;DHT22;6979;52.116;5.286;2023-02-28T02:17:18;8.30;99.90
13817;DHT22;6979;52.116;5.286;2023-02-28T02:25:53;8.30;99.90
13817;DHT22;6979;52.116;5.286;2023-02-28T02:28:49;8.40;99.90
13817;DHT22;6979;52.116;5.286;2023-02-28T02:31:57;8.40;99.90
13817;DHT22;6979;52.116;5.286;2023-02-28T02:34:43;8.40;99.90
13817;DHT22;6979;52.116;5.286;2023-02-28T02:37:27;8.40;99.90
13817;DHT22;6979;52.116;5.286;2023-02-28T02:40:03;8.40;99.90
13817;DHT22;6979;52.116;5.286;2023-02-28T02:42:42;8.40;99.90
13817;DHT22;6979;52.116;5.286;2023-02-28T02:45:15;8.40;99.90
13817;DHT22;6979;52.116;5.286;2023-02-28T02:47:44;8.40;99.90
13817;DHT22;6979;52.116;5.286;2023-02-28T02:50:18;8.40;99.90
13817;DHT22;6979;52.116;5.286;2023-02-28T02:52:49;8.40;99.90
13817;DHT22;6979;52.116;5.286;2023-02-28T02:55:18;8.40;99.90
13817;DHT22;6979;52.116;5.286;2023-02-28T02:57:48;8.40;99.90
13817;DHT22;6979;52.116;5.286;2023-02-28T03:00:18;8.40;99.90
13817;DHT22;6979;52.116;5.286;2023-02-28T03:02:47;8.40;99.90
13817;DHT22;6979;52.116;5.286;2023-02-28T03:05:20;8.40;99.90
13817;DHT22;6979;52.116;5.286;2023-02-28T03:07:48;8.50;99.90
13817;DHT22;6979;52.116;5.286;2023-02-28T03:10:34;8.50;99.90
13817;DHT22;6979;52.116;5.286;2023-02-28T03:13:17;8.50;99.90
13817;DHT22;6979;52.116;5.286;2023-02-28T03:15:58;8.50;99.90
13817;DHT22;6979;52.116;5.286;2023-02-28T03:18:29;8.50;99.90
13817;DHT22;6979;52.116;5.286;2023-02-28T03:21:04;8.50;99.90
13817;DHT22;6979;52.116;5.286;2023-02-28T03:23:41;8.50;99.90
13817;DHT22;6979;52.116;5.286;2023-02-28T03:26:16;8.50;99.90
13817;DHT22;6979;52.116;5.286;2023-02-28T03:28:51;8.50;99.90
13817;DHT22;6979;52.116;5.286;2023-02-28T03:31:22;8.60;99.90
13817;DHT22;6979;52.116;5.286;2023-02-28T03:33:57;8.60;99.90
13817;DHT22;6979;52.116;5.286;2023-02-28T03:36:28;8.60;99.90
13817;DHT22;6979;52.116;5.286;2023-02-28T03:38:58;8.60;99.90
13817;DHT22;6979;52.116;5.286;2023-02-28T03:41:31;8.60;99.90
13817;DHT22;6979;52.116;5.286;2023-02-28T03:44:05;8.60;99.90
13817;DHT22;6979;52.116;5.286;2023-02-28T03:46:36;8.60;99.90
13817;DHT22;6979;52.116;5.286;2023-02-28T03:49:11;8.60;99.90
13817;DHT22;6979;52.116;5.286;2023-02-28T03:51:42;8.70;99.90
13817;DHT22;6979;52.116;5.286;2023-02-28T03:54:15;8.70;99.90
13817;DHT22;6979;52.116;5.286;2023-02-28T03:56:47;8.70;99.90
13817;DHT22;6979;52.116;5.286;2023-02-28T03:59:18;8.70;99.90
13817;DHT22;6979;52.116;5.286;2023-02-28T04:01:48;8.70;99.90
13817;DHT22;6979;52.116;5.286;2023-02-28T04:04:17;8.70;99.90
13817;DHT22;6979;52.116;5.286;2023-02-28T04:06:47;8.70;99.90
13817;DHT22;6979;52.116;5.286;2023-02-28T04:09:16;8.70;99.90
13817;DHT22;6979;52.116;5.286;2023-02-28T04:11:44;8.70;99.90
13817;DHT22;6979;52.116;5.286;2023-02-28T04:14:12;8.70;99.90
13817;DHT22;6979;52.116;5.286;2023-02-28T04:16:41;8.70;99.90
13817;DHT22;6979;52.116;5.286;2023-02-28T04:19:10;8.70;99.90
13817;DHT22;6979;52.116;5.286;2023-02-28T04:21:38;8.70;99.90
13817;DHT22;6979;52.116;5.286;2023-02-28T04:24:08;8.70;99.90
13817;DHT22;6979;52.116;5.286;2023-02-28T04:26:40;8.70;99.90
13817;DHT22;6979;52.116;5.286;2023-02-28T04:29:10;8.70;99.90
13817;DHT22;6979;52.116;5.286;2023-02-28T04:31:37;8.60;99.90
13817;DHT22;6979;52.116;5.286;2023-02-28T04:34:05;8.60;99.90
13817;DHT22;6979;52.116;5.286;2023-02-28T04:36:32;8.60;99.90
13817;DHT22;6979;52.116;5.286;2023-02-28T04:39:00;8.60;99.90
13817;DHT22;6979;52.116;5.286;2023-02-28T04:41:28;8.60;99.90
13817;DHT22;6979;52.116;5.286;2023-02-28T04:43:55;8.50;99.90
13817;DHT22;6979;52.116;5.286;2023-02-28T04:46:22;8.50;99.90
13817;DHT22;6979;52.116;5.286;2023-02-28T04:48:49;8.50;99.90
13817;DHT22;6979;52.116;5.286;2023-02-28T04:51:20;8.40;99.90
13817;DHT22;6979;52.116;5.286;2023-02-28T04:53:47;8.40;99.90
13817;DHT22;6979;52.116;5.286;2023-02-28T04:56:16;8.40;99.90
13817;DHT22;6979;52.116;5.286;2023-02-28T04:58:46;8.30;99.90
13817;DHT22;6979;52.116;5.286;2023-02-28T05:01:18;8.30;99.90
13817;DHT22;6979;52.116;5.286;2023-02-28T05:03:46;8.30;99.90
13817;DHT22;6979;52.116;5.286;2023-02-28T05:06:13;8.30;99.90
13817;DHT22;6979;52.116;5.286;2023-02-28T05:08:41;8.20;99.90
13817;DHT22;6979;52.116;5.286;2023-02-28T05:11:17;8.20;99.90
13817;DHT22;6979;52.116;5.286;2023-02-28T05:13:46;8.20;99.90
13817;DHT22;6979;52.116;5.286;2023-02-28T05:16:14;8.20;99.90
13817;DHT22;6979;52.116;5.286;2023-02-28T05:18:41;8.10;99.90
13817;DHT22;6979;52.116;5.286;2023-02-28T05:21:27;8.10;99.90
13817;DHT22;6979;52.116;5.286;2023-02-28T05:23:55;8.10;99.90
13817;DHT22;6979;52.116;5.286;2023-02-28T05:26:25;8.10;99.90
13817;DHT22;6979;52.116;5.286;2023-02-28T05:28:54;8.00;99.90
13817;DHT22;6979;52.116;5.286;2023-02-28T05:31:21;8.00;99.90
13817;DHT22;6979;52.116;5.286;2023-02-28T05:33:48;8.00;99.90
13817;DHT22;6979;52.116;5.286;2023-02-28T05:36:15;7.90;99.90
13817;DHT22;6979;52.116;5.286;2023-02-28T05:38:42;7.80;99.90
13817;DHT22;6979;52.116;5.286;2023-02-28T05:41:12;7.80;99.90
13817;DHT22;6979;52.116;5.286;2023-02-28T05:43:39;7.70;99.90
13817;DHT22;6979;52.116;5.286;2023-02-28T05:46:09;7.70;99.90
13817;DHT22;6979;52.116;5.286;2023-02-28T05:48:37;7.70;99.90
13817;DHT22;6979;52.116;5.286;2023-02-28T05:51:09;7.60;99.90
13817;DHT22;6979;52.116;5.286;2023-02-28T05:53:36;7.60;99.90
13817;DHT22;6979;52.116;5.286;2023-02-28T05:56:03;7.60;99.90
13817;DHT22;6979;52.116;5.286;2023-02-28T05:58:30;7.50;99.90
13817;DHT22;6979;52.116;5.286;2023-02-28T06:00:57;7.50;99.90
13817;DHT22;6979;52.116;5.286;2023-02-28T06:03:26;7.50;99.90
13817;DHT22;6979;52.116;5.286;2023-02-28T06:05:55;7.50;99.90
13817;DHT22;6979;52.116;5.286;2023-02-28T06:08:22;7.50;99.90
13817;DHT22;6979;52.116;5.286;2023-02-28T06:10:48;7.50;99.90
13817;DHT22;6979;52.116;5.286;2023-02-28T06:13:15;7.50;99.90
13817;DHT22;6979;52.116;5.286;2023-02-28T06:15:42;7.50;99.90
13817;DHT22;6979;52.116;5.286;2023-02-28T06:18:09;7.50;99.90
13817;DHT22;6979;52.116;5.286;2023-02-28T06:20:37;7.50;99.90
13817;DHT22;6979;52.116;5.286;2023-02-28T06:23:04;7.50;99.90
13817;DHT22;6979;52.116;5.286;2023-02-28T06:25:31;7.50;99.90
13817;DHT22;6979;52.116;5.286;2023-02-28T06:27:58;7.50;99.90
13817;DHT22;6979;52.116;5.286;2023-02-28T06:30:25;7.50;99.90
13817;DHT22;6979;52.116;5.286;2023-02-28T06:32:54;7.50;99.90
13817;DHT22;6979;52.116;5.286;2023-02-28T06:35:22;7.50;99.90
13817;DHT22;6979;52.116;5.286;2023-02-28T06:37:50;7.50;99.90
13817;DHT22;6979;52.116;5.286;2023-02-28T06:40:17;7.50;99.90
13817;DHT22;6979;52.116;5.286;2023-02-28T06:42:47;7.50;99.90
13817;DHT22;6979;52.116;5.286;2023-02-28T06:45:14;7.50;99.90
13817;DHT22;6979;52.116;5.286;2023-02-28T06:47:41;7.50;99.90
13817;DHT22;6979;52.116;5.286;2023-02-28T06:50:10;7.50;99.90
13817;DHT22;6979;52.116;5.286;2023-02-28T06:52:39;7.50;99.90
13817;DHT22;6979;52.116;5.286;2023-02-28T06:55:08;7.50;99.90
13817;DHT22;6979;52.116;5.286;2023-02-28T06:57:36;7.50;99.90
13817;DHT22;6979;52.116;5.286;2023-02-28T07:00:05;7.50;99.90
13817;DHT22;6979;52.116;5.286;2023-02-28T07:02:33;7.60;99.90
13817;DHT22;6979;52.116;5.286;2023-02-28T07:05:00;7.50;99.90
13817;DHT22;6979;52.116;5.286;2023-02-28T07:07:27;7.50;99.90
13817;DHT22;6979;52.116;5.286;2023-02-28T07:09:54;7.60;99.90
13817;DHT22;6979;52.116;5.286;2023-02-28T07:12:22;7.60;99.90
13817;DHT22;6979;52.116;5.286;2023-02-28T07:14:51;7.50;99.90
13817;DHT22;6979;52.116;5.286;2023-02-28T07:17:20;7.60;99.90
13817;DHT22;6979;52.116;5.286;2023-02-28T07:19:46;7.60;99.90
13817;DHT22;6979;52.116;5.286;2023-02-28T07:22:13;7.60;99.90
13817;DHT22;6979;52.116;5.286;2023-02-28T07:24:40;7.60;99.90
13817;DHT22;6979;52.116;5.286;2023-02-28T07:27:07;7.60;99.90
13817;DHT22;6979;52.116;5.286;2023-02-28T07:29:35;7.60;99.90
13817;DHT22;6979;52.116;5.286;2023-02-28T07:32:03;7.60;99.90
13817;DHT22;6979;52.116;5.286;2023-02-28T07:34:30;7.60;99.90
13817;DHT22;6979;52.116;5.286;2023-02-28T07:36:56;7.60;99.90
13817;DHT22;6979;52.116;5.286;2023-02-28T07:39:23;7.60;99.90
13817;DHT22;6979;52.116;5.286;2023-02-28T07:41:50;7.60;99.90
13817;DHT22;6979;52.116;5.286;2023-02-28T07:44:17;7.70;99.90
13817;DHT22;6979;52.116;5.286;2023-02-28T07:46:45;7.70;99.90
13817;DHT22;6979;52.116;5.286;2023-02-28T07:49:12;7.70;99.90
13817;DHT22;6979;52.116;5.286;2023-02-28T07:51:39;7.70;99.90
13817;DHT22;6979;52.116;5.286;2023-02-28T07:54:06;7.80;99.90
13817;DHT22;6979;52.116;5.286;2023-02-28T07:56:33;7.80;99.90
13817;DHT22;6979;52.116;5.286;2023-02-28T07:59:00;7.80;99.90
13817;DHT22;6979;52.116;5.286;2023-02-28T08:01:28;7.80;99.90
13817;DHT22;6979;52.116;5.286;2023-02-28T08:03:58;7.80;99.90
13817;DHT22;6979;52.116;5.286;2023-02-28T08:06:25;7.80;99.90
13817;DHT22;6979;52.116;5.286;2023-02-28T08:08:53;7.90;99.90
13817;DHT22;6979;52.116;5.286;2023-02-28T08:11:21;7.90;99.90
13817;DHT22;6979;52.116;5.286;2023-02-28T08:13:48;7.90;99.90
13817;DHT22;6979;52.116;5.286;2023-02-28T08:16:15;8.00;99.90
13817;DHT22;6979;52.116;5.286;2023-02-28T08:18:46;8.00;99.90
13817;DHT22;6979;52.116;5.286;2023-02-28T08:21:14;8.00;99.90
13817;DHT22;6979;52.116;5.286;2023-02-28T08:23:41;8.10;99.90
13817;DHT22;6979;52.116;5.286;2023-02-28T08:26:08;8.10;99.90
13817;DHT22;6979;52.116;5.286;2023-02-28T08:28:35;8.10;99.90
13817;DHT22;6979;52.116;5.286;2023-02-28T08:31:07;8.20;99.90
13817;DHT22;6979;52.116;5.286;2023-02-28T08:33:34;8.20;99.90
13817;DHT22;6979;52.116;5.286;2023-02-28T08:36:07;8.20;99.90
13817;DHT22;6979;52.116;5.286;2023-02-28T08:38:39;8.30;99.90
13817;DHT22;6979;52.116;5.286;2023-02-28T08:41:08;8.30;99.90
13817;DHT22;6979;52.116;5.286;2023-02-28T08:43:35;8.30;99.90
13817;DHT22;6979;52.116;5.286;2023-02-28T08:46:03;8.40;99.90
13817;DHT22;6979;52.116;5.286;2023-02-28T08:48:32;8.40;99.90
13817;DHT22;6979;52.116;5.286;2023-02-28T08:51:01;8.40;99.90
13817;DHT22;6979;52.116;5.286;2023-02-28T08:53:28;8.50;99.90
13817;DHT22;6979;52.116;5.286;2023-02-28T08:55:58;8.50;99.90
13817;DHT22;6979;52.116;5.286;2023-02-28T08:58:25;8.50;99.90
13817;DHT22;6979;52.116;5.286;2023-02-28T09:00:53;8.50;99.90
13817;DHT22;6979;52.116;5.286;2023-02-28T09:03:28;8.50;99.90
13817;DHT22;6979;52.116;5.286;2023-02-28T09:05:57;8.50;99.90
13817;DHT22;6979;52.116;5.286;2023-02-28T09:08:24;8.60;99.90
13817;DHT22;6979;52.116;5.286;2023-02-28T09:10:52;8.60;99.90
13817;DHT22;6979;52.116;5.286;2023-02-28T09:13:21;8.70;99.90
13817;DHT22;6979;52.116;5.286;2023-02-28T09:15:48;8.70;99.90
13817;DHT22;6979;52.116;5.286;2023-02-28T09:18:15;8.70;99.90
13817;DHT22;6979;52.116;5.286;2023-02-28T09:20:42;8.80;99.90
13817;DHT22;6979;52.116;5.286;2023-02-28T09:23:11;8.80;99.90
13817;DHT22;6979;52.116;5.286;2023-02-28T09:25:45;8.80;99.90
13817;DHT22;6979;52.116;5.286;2023-02-28T09:28:13;8.90;99.90
13817;DHT22;6979;52.116;5.286;2023-02-28T09:30:44;9.00;99.90
13817;DHT22;6979;52.116;5.286;2023-02-28T09:33:12;9.10;99.90
13817;DHT22;6979;52.116;5.286;2023-02-28T09:35:38;9.30;99.90
13817;DHT22;6979;52.116;5.286;2023-02-28T09:38:09;9.40;99.90
13817;DHT22;6979;52.116;5.286;2023-02-28T09:40:38;9.60;99.90
13817;DHT22;6979;52.116;5.286;2023-02-28T09:43:09;9.80;99.90
13817;DHT22;6979;52.116;5.286;2023-02-28T09:45:40;10.10;99.90
13817;DHT22;6979;52.116;5.286;2023-02-28T09:48:16;10.60;99.90
13817;DHT22;6979;52.116;5.286;2023-02-28T09:50:47;11.30;99.90
13817;DHT22;6979;52.116;5.286;2023-02-28T09:53:19;11.90;99.90
13817;DHT22;6979;52.116;5.286;2023-02-28T09:55:50;12.50;99.90
13817;DHT22;6979;52.116;5.286;2023-02-28T09:58:23;13.00;99.90
13817;DHT22;6979;52.116;5.286;2023-02-28T10:00:57;13.50;97.50
13817;DHT22;6979;52.116;5.286;2023-02-28T10:03:32;13.90;98.80
13817;DHT22;6979;52.116;5.286;2023-02-28T10:06:08;14.00;99.90
13817;DHT22;6979;52.116;5.286;2023-02-28T10:08:42;14.10;98.70
13817;DHT22;6979;52.116;5.286;2023-02-28T10:11:15;14.10;98.30
13817;DHT22;6979;52.116;5.286;2023-02-28T10:13:53;14.10;98.30
13817;DHT22;6979;52.116;5.286;2023-02-28T10:16:27;14.00;98.00
13817;DHT22;6979;52.116;5.286;2023-02-28T10:19:01;13.90;97.30
13817;DHT22;6979;52.116;5.286;2023-02-28T10:21:31;13.80;96.80
13817;DHT22;6979;52.116;5.286;2023-02-28T10:24:18;13.70;95.00
13817;DHT22;6979;52.116;5.286;2023-02-28T10:26:47;13.50;94.70
13817;DHT22;6979;52.116;5.286;2023-02-28T10:29:14;13.40;96.30
13817;DHT22;6979;52.116;5.286;2023-02-28T10:31:44;13.30;97.40
13817;DHT22;6979;52.116;5.286;2023-02-28T10:34:15;13.50;97.60
13817;DHT22;6979;52.116;5.286;2023-02-28T10:36:42;13.80;98.60
13817;DHT22;6979;52.116;5.286;2023-02-28T10:39:33;14.30;99.20
13817;DHT22;6979;52.116;5.286;2023-02-28T10:42:04;14.90;99.80
13817;DHT22;6979;52.116;5.286;2023-02-28T10:44:32;15.60;99.90
13817;DHT22;6979;52.116;5.286;2023-02-28T10:46:59;16.30;99.90
13817;DHT22;6979;52.116;5.286;2023-02-28T10:49:28;17.00;98.80
13817;DHT22;6979;52.116;5.286;2023-02-28T10:51:57;17.60;96.90
13817;DHT22;6979;52.116;5.286;2023-02-28T10:54:30;18.00;93.80
13817;DHT22;6979;52.116;5.286;2023-02-28T10:57:16;18.40;92.20
13817;DHT22;6979;52.116;5.286;2023-02-28T10:59:44;18.70;92.20
13817;DHT22;6979;52.116;5.286;2023-02-28T11:02:31;18.90;91.70
13817;DHT22;6979;52.116;5.286;2023-02-28T11:04:59;19.20;91.70
13817;DHT22;6979;52.116;5.286;2023-02-28T11:07:26;19.40;91.00
13817;DHT22;6979;52.116;5.286;2023-02-28T11:09:56;19.60;90.70
13817;DHT22;6979;52.116;5.286;2023-02-28T11:12:26;19.90;90.40
13817;DHT22;6979;52.116;5.286;2023-02-28T11:14:56;20.10;86.90
13817;DHT22;6979;52.116;5.286;2023-02-28T11:17:26;20.30;87.80
13817;DHT22;6979;52.116;5.286;2023-02-28T11:19:56;20.40;89.00
13817;DHT22;6979;52.116;5.286;2023-02-28T11:22:27;20.70;88.40
13817;DHT22;6979;52.116;5.286;2023-02-28T11:24:57;20.90;88.00
13817;DHT22;6979;52.116;5.286;2023-02-28T11:27:43;21.20;85.20
13817;DHT22;6979;52.116;5.286;2023-02-28T11:30:28;21.40;84.40
13817;DHT22;6979;52.116;5.286;2023-02-28T11:32:56;21.60;83.60
13817;DHT22;6979;52.116;5.286;2023-02-28T11:35:26;21.70;83.40
13817;DHT22;6979;52.116;5.286;2023-02-28T11:37:55;21.70;83.10
13817;DHT22;6979;52.116;5.286;2023-02-28T11:40:27;21.70;82.90
13817;DHT22;6979;52.116;5.286;2023-02-28T11:43:04;21.80;82.90
13817;DHT22;6979;52.116;5.286;2023-02-28T11:45:55;21.90;82.00
13817;DHT22;6979;52.116;5.286;2023-02-28T11:48:32;22.00;81.80
13817;DHT22;6979;52.116;5.286;2023-02-28T11:51:08;22.10;81.70
13817;DHT22;6979;52.116;5.286;2023-02-28T11:54:03;22.20;80.50
13817;DHT22;6979;52.116;5.286;2023-02-28T11:56:36;22.30;78.90
13817;DHT22;6979;52.116;5.286;2023-02-28T11:59:20;22.40;80.00
13817;DHT22;6979;52.116;5.286;2023-02-28T12:02:13;22.40;75.20
13817;DHT22;6979;52.116;5.286;2023-02-28T12:04:53;22.30;75.90
13817;DHT22;6979;52.116;5.286;2023-02-28T12:07:32;22.20;76.00
13817;DHT22;6979;52.116;5.286;2023-02-28T12:10:06;22.10;76.10
13817;DHT22;6979;52.116;5.286;2023-02-28T12:12:42;21.90;75.70
13817;DHT22;6979;52.116;5.286;2023-02-28T12:15:26;21.80;77.60
13817;DHT22;6979;52.116;5.286;2023-02-28T12:18:27;21.80;76.80
13817;DHT22;6979;52.116;5.286;2023-02-28T12:21:01;21.80;77.60
13817;DHT22;6979;52.116;5.286;2023-02-28T12:24:01;21.80;76.40
13817;DHT22;6979;52.116;5.286;2023-02-28T12:26:39;21.80;74.60
13817;DHT22;6979;52.116;5.286;2023-02-28T12:29:13;21.80;76.00
13817;DHT22;6979;52.116;5.286;2023-02-28T12:31:47;21.80;75.90
13817;DHT22;6979;52.116;5.286;2023-02-28T12:34:21;21.70;76.40
13817;DHT22;6979;52.116;5.286;2023-02-28T12:36:49;21.70;75.60
13817;DHT22;6979;52.116;5.286;2023-02-28T12:39:23;21.70;76.00
13817;DHT22;6979;52.116;5.286;2023-02-28T12:41:55;21.70;76.40
13817;DHT22;6979;52.116;5.286;2023-02-28T12:44:30;21.80;76.90
13817;DHT22;6979;52.116;5.286;2023-02-28T12:47:02;22.00;76.30
13817;DHT22;6979;52.116;5.286;2023-02-28T12:49:33;22.10;76.20
13817;DHT22;6979;52.116;5.286;2023-02-28T12:52:01;22.30;73.50
13817;DHT22;6979;52.116;5.286;2023-02-28T12:54:32;22.40;74.40
13817;DHT22;6979;52.116;5.286;2023-02-28T12:57:08;22.40;72.80
13817;DHT22;6979;52.116;5.286;2023-02-28T12:59:39;22.40;71.50
13817;DHT22;6979;52.116;5.286;2023-02-28T13:02:33;22.40;72.20
13817;DHT22;6979;52.116;5.286;2023-02-28T13:11:27;22.50;72.80
13817;DHT22;6979;52.116;5.286;2023-02-28T13:14:06;22.60;71.70
13817;DHT22;6979;52.116;5.286;2023-02-28T13:16:56;22.60;72.70
13817;DHT22;6979;52.116;5.286;2023-02-28T13:19:25;22.70;72.30
13817;DHT22;6979;52.116;5.286;2023-02-28T13:21:52;22.70;71.80
13817;DHT22;6979;52.116;5.286;2023-02-28T13:24:44;22.80;71.70
13817;DHT22;6979;52.116;5.286;2023-02-28T13:27:36;22.80;71.30
13817;DHT22;6979;52.116;5.286;2023-02-28T13:33:22;22.80;69.20
13817;DHT22;6979;52.116;5.286;2023-02-28T13:36:08;22.80;68.80
13817;DHT22;6979;52.116;5.286;2023-02-28T13:38:41;22.80;68.70
13817;DHT22;6979;52.116;5.286;2023-02-28T13:41:44;22.70;70.00
13817;DHT22;6979;52.116;5.286;2023-02-28T13:44:13;22.70;69.50
13817;DHT22;6979;52.116;5.286;2023-02-28T13:49:45;22.70;69.20
13817;DHT22;6979;52.116;5.286;2023-02-28T13:52:16;22.70;69.60
13817;DHT22;6979;52.116;5.286;2023-02-28T13:54:56;22.80;69.00
13817;DHT22;6979;52.116;5.286;2023-02-28T13:57:39;22.80;68.80
13817;DHT22;6979;52.116;5.286;2023-02-28T14:00:19;22.90;67.60
13817;DHT22;6979;52.116;5.286;2023-02-28T14:03:16;22.90;67.50
13817;DHT22;6979;52.116;5.286;2023-02-28T14:05:46;22.90;68.50
13817;DHT22;6979;52.116;5.286;2023-02-28T14:08:17;23.00;67.70
13817;DHT22;6979;52.116;5.286;2023-02-28T14:10:48;23.00;67.60
13817;DHT22;6979;52.116;5.286;2023-02-28T14:13:38;22.90;67.50
13817;DHT22;6979;52.116;5.286;2023-02-28T14:16:10;22.90;67.00
13817;DHT22;6979;52.116;5.286;2023-02-28T14:18:41;22.90;67.00
13817;DHT22;6979;52.116;5.286;2023-02-28T14:21:14;22.90;67.30
13817;DHT22;6979;52.116;5.286;2023-02-28T14:24:16;22.90;66.70
13817;DHT22;6979;52.116;5.286;2023-02-28T14:27:11;22.80;66.40
13817;DHT22;6979;52.116;5.286;2023-02-28T14:30:15;22.80;66.00
13817;DHT22;6979;52.116;5.286;2023-02-28T14:32:54;22.90;66.70
13817;DHT22;6979;52.116;5.286;2023-02-28T14:35:39;22.90;66.80
13817;DHT22;6979;52.116;5.286;2023-02-28T14:38:16;22.80;66.90
13817;DHT22;6979;52.116;5.286;2023-02-28T14:40:45;22.90;66.60
13817;DHT22;6979;52.116;5.286;2023-02-28T14:43:21;22.90;66.60
13817;DHT22;6979;52.116;5.286;2023-02-28T14:45:51;23.00;66.60
13817;DHT22;6979;52.116;5.286;2023-02-28T14:48:19;23.00;67.20
13817;DHT22;6979;52.116;5.286;2023-02-28T14:50:49;23.10;66.80
13817;DHT22;6979;52.116;5.286;2023-02-28T14:53:20;23.10;65.20
13817;DHT22;6979;52.116;5.286;2023-02-28T14:55:49;23.10;65.70
13817;DHT22;6979;52.116;5.286;2023-02-28T14:58:24;23.10;65.10
13817;DHT22;6979;52.116;5.286;2023-02-28T15:00:53;23.10;64.50
13817;DHT22;6979;52.116;5.286;2023-02-28T15:03:22;23.00;64.60
13817;DHT22;6979;52.116;5.286;2023-02-28T15:05:54;22.90;64.50
13817;DHT22;6979;52.116;5.286;2023-02-28T15:08:23;22.80;65.00
13817;DHT22;6979;52.116;5.286;2023-02-28T15:10:56;22.70;65.50
13817;DHT22;6979;52.116;5.286;2023-02-28T15:13:30;22.70;65.50
13817;DHT22;6979;52.116;5.286;2023-02-28T15:16:02;22.70;65.40
13817;DHT22;6979;52.116;5.286;2023-02-28T15:18:33;22.60;64.80
13817;DHT22;6979;52.116;5.286;2023-02-28T15:21:07;22.60;63.50
13817;DHT22;6979;52.116;5.286;2023-02-28T15:23:40;22.40;64.80
13817;DHT22;6979;52.116;5.286;2023-02-28T15:26:09;22.20;65.30
13817;DHT22;6979;52.116;5.286;2023-02-28T15:28:37;22.20;66.40
13817;DHT22;6979;52.116;5.286;2023-02-28T15:31:22;22.10;65.10
13817;DHT22;6979;52.116;5.286;2023-02-28T15:33:53;22.00;64.20
13817;DHT22;6979;52.116;5.286;2023-02-28T15:36:25;21.90;64.30
13817;DHT22;6979;52.116;5.286;2023-02-28T15:38:55;21.80;64.20
13817;DHT22;6979;52.116;5.286;2023-02-28T15:41:25;21.70;64.80
13817;DHT22;6979;52.116;5.286;2023-02-28T15:46:58;21.50;64.50
13817;DHT22;6979;52.116;5.286;2023-02-28T15:49:28;21.40;64.60
13817;DHT22;6979;52.116;5.286;2023-02-28T15:51:58;21.20;64.10
13817;DHT22;6979;52.116;5.286;2023-02-28T15:54:29;21.00;63.90
13817;DHT22;6979;52.116;5.286;2023-02-28T15:57:03;20.90;64.40
13817;DHT22;6979;52.116;5.286;2023-02-28T15:59:32;20.70;64.20
13817;DHT22;6979;52.116;5.286;2023-02-28T16:02:11;20.40;64.00
13817;DHT22;6979;52.116;5.286;2023-02-28T16:04:55;20.20;63.80
13817;DHT22;6979;52.116;5.286;2023-02-28T16:07:23;19.80;64.10
13817;DHT22;6979;52.116;5.286;2023-02-28T16:09:52;19.50;65.00
13817;DHT22;6979;52.116;5.286;2023-02-28T16:12:20;19.20;65.20
13817;DHT22;6979;52.116;5.286;2023-02-28T16:14:49;18.90;65.50
13817;DHT22;6979;52.116;5.286;2023-02-28T16:17:20;18.60;65.80
13817;DHT22;6979;52.116;5.286;2023-02-28T16:19:48;18.30;66.30
13817;DHT22;6979;52.116;5.286;2023-02-28T16:22:15;18.00;66.70
13817;DHT22;6979;52.116;5.286;2023-02-28T16:24:41;17.70;66.90
13817;DHT22;6979;52.116;5.286;2023-02-28T16:27:16;17.50;67.30
13817;DHT22;6979;52.116;5.286;2023-02-28T16:29:44;17.20;67.20
13817;DHT22;6979;52.116;5.286;2023-02-28T16:32:12;16.90;68.60
13817;DHT22;6979;52.116;5.286;2023-02-28T16:34:40;16.70;67.80
13817;DHT22;6979;52.116;5.286;2023-02-28T16:37:14;16.40;68.20
13817;DHT22;6979;52.116;5.286;2023-02-28T16:39:41;16.10;68.40
13817;DHT22;6979;52.116;5.286;2023-02-28T16:42:16;15.80;68.90
13817;DHT22;6979;52.116;5.286;2023-02-28T16:44:46;15.50;69.00
13817;DHT22;6979;52.116;5.286;2023-02-28T16:47:13;15.30;69.50